createdAt,value
2019-04-10T00:02:17.592Z,101760.88
2019-04-10T00:04:45.940Z,101761.31
2019-04-10T00:07:17.398Z,101759.17
2019-04-10T00:09:45.351Z,101762.66
2019-04-10T00:12:14.208Z,101764.45
2019-04-10T00:14:43.076Z,101759.92
2019-04-10T00:17:13.163Z,101762.89
2019-04-10T00:19:41.427Z,101762.81
2019-04-10T00:22:09.919Z,101765.42
2019-04-10T00:24:38.393Z,101760.82
2019-04-10T00:27:06.886Z,101762.64
2019-04-10T00:29:36.313Z,101772.20
2019-04-10T00:32:06.402Z,101770.36
2019-04-10T00:34:34.583Z,101773.61
2019-04-10T00:37:06.016Z,101768.95
2019-04-10T00:39:34.876Z,101769.98
2019-04-10T00:42:03.393Z,101767.62
2019-04-10T00:44:32.784Z,101776.03
2019-04-10T00:47:03.217Z,101775.09
2019-04-10T00:49:31.528Z,101767.44
2019-04-10T00:51:59.891Z,101770.53
2019-04-10T00:54:28.385Z,101773.64
2019-04-10T00:56:56.975Z,101768.70
2019-04-10T00:59:26.396Z,101771.53
2019-04-10T01:01:54.607Z,101767.48
2019-04-10T01:04:24.587Z,101771.53
2019-04-10T01:06:52.844Z,101763.07
2019-04-10T01:09:21.543Z,101763.34
2019-04-10T01:11:49.808Z,101771.00
2019-04-10T01:14:18.275Z,101771.74
2019-04-10T01:16:47.387Z,101777.13
2019-04-10T01:19:15.757Z,101770.55
2019-04-10T01:21:44.302Z,101769.34
2019-04-10T01:24:13.166Z,101771.27
2019-04-10T01:26:41.708Z,101768.80
2019-04-10T01:29:11.757Z,101766.18
2019-04-10T01:31:39.967Z,101759.37
2019-04-10T01:34:09.363Z,101761.66
2019-04-10T01:36:37.677Z,101767.85
2019-04-10T01:39:08.754Z,101771.05
2019-04-10T01:41:39.759Z,101770.55
2019-04-10T01:44:08.240Z,101763.34
2019-04-10T01:46:36.749Z,101763.28
2019-04-10T01:49:05.314Z,101762.70
2019-04-10T01:51:33.708Z,101763.29
2019-04-10T01:54:02.704Z,101759.00
2019-04-10T01:56:33.569Z,101761.28
2019-04-10T01:59:01.437Z,101759.69
2019-04-10T02:01:34.664Z,101762.37
2019-04-10T02:04:03.281Z,101760.89
2019-04-10T02:06:31.742Z,101762.92
2019-04-10T02:09:00.432Z,101762.09
2019-04-10T02:11:28.699Z,101761.14
2019-04-10T02:13:58.205Z,101761.50
2019-04-10T02:16:27.227Z,101764.27
2019-04-10T02:18:57.615Z,101764.27
2019-04-10T02:21:26.217Z,101765.33
2019-04-10T02:23:54.721Z,101763.17
2019-04-10T02:26:22.925Z,101764.12
2019-04-10T02:28:51.409Z,101763.80
2019-04-10T02:31:21.384Z,101764.19
2019-04-10T02:33:51.738Z,101767.54
2019-04-10T02:36:21.269Z,101763.91
2019-04-10T02:39:01.887Z,101774.48
2019-04-10T02:41:19.726Z,101768.01
2019-04-10T02:43:48.436Z,101768.01
2019-04-10T02:46:16.674Z,101767.82
2019-04-10T02:48:47.619Z,101771.63
2019-04-10T02:51:17.593Z,101769.63
2019-04-10T02:53:48.041Z,101770.90
2019-04-10T02:56:17.886Z,101772.31
2019-04-10T02:58:47.090Z,101773.00
2019-04-10T03:01:15.781Z,101768.66
2019-04-10T03:03:44.696Z,101769.05
2019-04-10T03:06:13.582Z,101777.39
2019-04-10T03:08:58.970Z,101772.81
2019-04-10T03:11:14.518Z,101776.59
2019-04-10T03:13:45.005Z,101777.13
2019-04-10T03:16:14.106Z,101769.23
2019-04-10T03:18:43.107Z,101771.38
2019-04-10T03:21:12.641Z,101770.03
2019-04-10T03:23:41.990Z,101773.59
2019-04-10T03:26:10.105Z,101776.66
2019-04-10T03:28:38.898Z,101774.70
2019-04-10T03:31:07.982Z,101774.94
2019-04-10T03:33:52.245Z,101777.91
2019-04-10T03:36:19.598Z,101779.61
2019-04-10T03:38:57.765Z,101780.16
2019-04-10T03:41:20.294Z,101778.41
2019-04-10T03:43:48.504Z,101777.06
2019-04-10T03:46:17.288Z,101777.53
2019-04-10T03:48:45.561Z,101774.54
2019-04-10T03:51:14.431Z,101770.23
2019-04-10T03:53:43.033Z,101771.44
2019-04-10T03:56:11.711Z,101781.56
2019-04-10T03:58:39.923Z,101774.81
2019-04-10T04:01:08.874Z,101775.58
2019-04-10T04:03:37.153Z,101779.48
2019-04-10T04:06:05.451Z,101778.30
2019-04-10T04:08:35.283Z,101780.18
2019-04-10T04:11:04.899Z,101783.61
2019-04-10T04:13:33.349Z,101777.59
2019-04-10T04:16:02.255Z,101779.34
2019-04-10T04:18:30.723Z,101785.33
2019-04-10T04:20:59.354Z,101785.36
2019-04-10T04:23:27.878Z,101784.14
2019-04-10T04:25:56.868Z,101793.02
2019-04-10T04:28:25.764Z,101785.22
2019-04-10T04:30:54.377Z,101780.75
2019-04-10T04:33:23.241Z,101795.14
2019-04-10T04:35:53.099Z,101789.84
2019-04-10T04:38:21.680Z,101787.85
2019-04-10T04:40:51.262Z,101798.61
2019-04-10T04:43:21.664Z,101789.84
2019-04-10T04:45:51.677Z,101797.09
2019-04-10T04:48:20.166Z,101794.54
2019-04-10T04:50:48.350Z,101798.23
2019-04-10T04:53:18.398Z,101801.35
2019-04-10T04:55:48.474Z,101798.33
2019-04-10T04:58:16.857Z,101804.98
2019-04-10T05:00:45.940Z,101798.80
2019-04-10T05:03:14.347Z,101810.63
2019-04-10T05:05:43.316Z,101802.07
2019-04-10T05:08:13.208Z,101800.49
2019-04-10T05:10:41.891Z,101799.25
2019-04-10T05:13:10.391Z,101805.03
2019-04-10T05:15:40.802Z,101805.95
2019-04-10T05:18:10.379Z,101803.63
2019-04-10T05:20:45.416Z,101808.16
2019-04-10T05:23:08.836Z,101812.37
2019-04-10T05:25:37.789Z,101813.98
2019-04-10T05:28:06.310Z,101809.41
2019-04-10T05:30:35.680Z,101811.55
2019-04-10T05:33:04.209Z,101811.62
2019-04-10T05:35:32.411Z,101815.71
2019-04-10T05:38:01.068Z,101815.80
2019-04-10T05:40:30.244Z,101813.27
2019-04-10T05:42:59.503Z,101811.09
2019-04-10T05:45:27.740Z,101817.28
2019-04-10T05:47:56.761Z,101819.44
2019-04-10T05:50:25.758Z,101819.73
2019-04-10T05:52:55.895Z,101819.19
2019-04-10T05:55:24.602Z,101816.45
2019-04-10T05:57:53.164Z,101828.17
2019-04-10T06:00:22.969Z,101826.41
2019-04-10T06:02:52.185Z,101828.62
2019-04-10T06:05:20.452Z,101830.34
2019-04-10T06:07:49.619Z,101829.77
2019-04-10T06:10:19.741Z,101828.16
2019-04-10T06:12:48.779Z,101830.58
2019-04-10T06:15:17.017Z,101824.38
2019-04-10T06:17:45.228Z,101823.45
2019-04-10T06:20:14.217Z,101826.98
2019-04-10T06:22:44.326Z,101822.94
2019-04-10T06:25:16.172Z,101824.21
2019-04-10T06:27:45.026Z,101836.22
2019-04-10T06:30:13.260Z,101829.25
2019-04-10T06:32:41.456Z,101829.32
2019-04-10T06:35:09.647Z,101834.13
2019-04-10T06:37:38.053Z,101838.47
2019-04-10T06:40:14.279Z,101833.19
2019-04-10T06:42:46.090Z,101833.77
2019-04-10T06:45:07.332Z,101838.61
2019-04-10T06:47:36.155Z,101832.88
2019-04-10T06:50:06.447Z,101825.64
2019-04-10T06:52:34.715Z,101829.62
2019-04-10T06:55:05.025Z,101830.25
2019-04-10T06:57:46.886Z,101830.13
2019-04-10T07:00:12.136Z,101832.08
2019-04-10T07:02:38.704Z,101826.39
2019-04-10T07:05:10.050Z,101828.83
2019-04-10T07:07:47.489Z,101828.12
2019-04-10T07:10:21.431Z,101832.84
2019-04-10T07:12:37.840Z,101825.62
2019-04-10T07:15:07.049Z,101828.29
2019-04-10T07:17:40.665Z,101831.05
2019-04-10T07:20:09.422Z,101832.34
2019-04-10T07:22:42.822Z,101833.98
2019-04-10T07:25:10.357Z,101835.97
2019-04-10T07:27:40.168Z,101838.66
2019-04-10T07:30:09.730Z,101844.19
2019-04-10T07:32:41.290Z,101838.81
2019-04-10T07:35:08.839Z,101841.03
2019-04-10T07:37:38.810Z,101848.13
2019-04-10T07:40:07.940Z,101854.20
2019-04-10T07:42:40.289Z,101856.17
2019-04-10T07:45:07.803Z,101856.16
2019-04-10T07:47:37.992Z,101858.28
2019-04-10T07:50:08.691Z,101866.61
2019-04-10T07:52:37.338Z,101858.81
2019-04-10T07:55:06.574Z,101861.77
2019-04-10T07:57:34.875Z,101869.75
2019-04-10T08:00:03.269Z,101862.52
2019-04-10T08:02:31.730Z,101858.23
2019-04-10T08:05:00.192Z,101871.81
2019-04-10T08:07:31.729Z,101862.50
2019-04-10T08:09:59.325Z,101865.28
2019-04-10T08:12:37.641Z,101868.91
2019-04-10T08:14:57.543Z,101878.52
2019-04-10T08:17:26.258Z,101874.34
2019-04-10T08:19:55.884Z,101883.77
2019-04-10T08:22:24.091Z,101884.94
2019-04-10T08:24:53.603Z,101885.06
2019-04-10T08:27:22.077Z,101889.06
2019-04-10T08:29:51.202Z,101889.27
2019-04-10T08:32:21.594Z,101891.83
2019-04-10T08:34:51.223Z,101893.19
2019-04-10T08:37:20.629Z,101881.47
2019-04-10T08:39:50.834Z,101881.00
2019-04-10T08:42:18.963Z,101880.05
2019-04-10T08:44:48.655Z,101892.30
2019-04-10T08:47:17.291Z,101891.65
2019-04-10T08:49:45.522Z,101894.98
2019-04-10T08:52:14.874Z,101898.41
2019-04-10T08:54:43.074Z,101890.72
2019-04-10T08:57:12.250Z,101895.53
2019-04-10T08:59:40.459Z,101896.36
2019-04-10T09:02:09.457Z,101896.36
2019-04-10T09:04:37.948Z,101901.16
2019-04-10T09:07:06.845Z,101901.16
2019-04-10T09:09:35.411Z,101902.88
2019-04-10T09:12:03.877Z,101883.71
2019-04-10T09:14:32.936Z,101883.71
2019-04-10T09:17:02.975Z,101893.15
2019-04-10T09:19:31.386Z,101893.15
2019-04-10T09:22:01.249Z,101898.34
2019-04-10T09:24:30.055Z,101898.78
2019-04-10T09:26:58.374Z,101899.62
2019-04-10T09:29:27.867Z,101892.20
2019-04-10T09:31:56.415Z,101890.00
2019-04-10T09:34:25.610Z,101892.77
2019-04-10T09:36:54.524Z,101886.56
2019-04-10T09:39:23.329Z,101886.47
2019-04-10T09:41:52.349Z,101877.90
2019-04-10T09:44:20.916Z,101871.20
2019-04-10T09:46:51.638Z,101883.89
2019-04-10T09:49:31.952Z,101878.67
2019-04-10T09:51:50.345Z,101879.05
2019-04-10T09:54:18.814Z,101897.70
2019-04-10T09:56:47.012Z,101897.70
2019-04-10T09:59:16.032Z,101879.77
2019-04-10T10:01:44.514Z,101880.60
2019-04-10T10:04:13.287Z,101889.75
2019-04-10T10:06:41.735Z,101874.11
2019-04-10T10:09:10.223Z,101884.66
2019-04-10T10:11:38.715Z,101877.96
2019-04-10T10:14:07.190Z,101884.45
2019-04-10T10:16:35.898Z,101891.40
2019-04-10T10:19:04.146Z,101883.58
2019-04-10T10:21:32.488Z,101895.74
2019-04-10T10:24:01.112Z,101891.73
2019-04-10T10:26:32.122Z,101897.42
2019-04-10T10:29:01.145Z,101885.39
2019-04-10T10:31:30.556Z,101885.00
2019-04-10T10:33:59.135Z,101902.08
2019-04-10T10:36:36.648Z,101904.80
2019-04-10T10:39:07.066Z,101894.57
2019-04-10T10:41:29.919Z,101894.57
2019-04-10T10:43:58.492Z,101897.03
2019-04-10T10:46:27.251Z,101889.95
2019-04-10T10:48:56.883Z,101890.25
2019-04-10T10:51:25.149Z,101890.25
2019-04-10T10:53:54.699Z,101894.47
2019-04-10T10:56:23.132Z,101884.36
2019-04-10T10:58:52.964Z,101894.31
2019-04-10T11:01:24.067Z,101901.64
2019-04-10T11:03:52.763Z,101899.47
2019-04-10T11:06:21.157Z,101891.06
2019-04-10T11:08:49.366Z,101899.25
2019-04-10T11:11:17.683Z,101905.18
2019-04-10T11:13:46.929Z,101907.58
2019-04-10T11:16:15.171Z,101913.12
2019-04-10T11:18:43.564Z,101898.35
2019-04-10T11:21:12.740Z,101893.76
2019-04-10T11:23:42.440Z,101904.40
2019-04-10T11:26:11.425Z,101905.63
2019-04-10T11:28:41.867Z,101902.72
2019-04-10T11:31:11.056Z,101896.69
2019-04-10T11:33:40.188Z,101902.17
2019-04-10T11:36:09.889Z,101900.55
2019-04-10T11:38:39.703Z,101900.48
2019-04-10T11:41:08.073Z,101898.86
2019-04-10T11:43:37.668Z,101900.16
2019-04-10T11:46:07.813Z,101902.67
2019-04-10T11:48:36.654Z,101902.67
2019-04-10T11:51:06.742Z,101902.46
2019-04-10T11:53:37.880Z,101905.20
2019-04-10T11:56:05.799Z,101901.68
2019-04-10T11:58:36.253Z,101898.30
2019-04-10T12:01:08.239Z,101906.94
2019-04-10T12:03:37.124Z,101906.94
2019-04-10T12:06:06.462Z,101899.81
2019-04-10T12:09:03.720Z,101901.78
2019-04-10T12:11:13.677Z,101904.46
2019-04-10T12:13:38.691Z,101903.84
2019-04-10T12:16:07.172Z,101899.07
2019-04-10T12:18:36.726Z,101909.98
2019-04-10T12:21:05.558Z,101905.88
2019-04-10T12:23:34.716Z,101902.03
2019-04-10T12:26:03.851Z,101911.72
2019-04-10T12:28:33.938Z,101905.98
2019-04-10T12:31:02.288Z,101912.44
2019-04-10T12:33:31.723Z,101911.97
2019-04-10T12:36:00.401Z,101908.37
2019-04-10T12:38:29.768Z,101906.36
2019-04-10T12:40:59.019Z,101904.47
2019-04-10T12:43:29.257Z,101908.72
2019-04-10T12:45:57.459Z,101907.72
2019-04-10T12:48:26.333Z,101909.34
2019-04-10T12:50:55.121Z,101911.38
2019-04-10T12:53:23.396Z,101912.96
2019-04-10T12:55:53.549Z,101918.78
2019-04-10T12:58:22.483Z,101916.06
2019-04-10T13:00:52.146Z,101922.38
2019-04-10T13:03:21.347Z,101918.37
2019-04-10T13:05:51.475Z,101918.00
2019-04-10T13:08:22.844Z,101925.28
2019-04-10T13:10:50.286Z,101920.52
2019-04-10T13:13:18.488Z,101916.14
2019-04-10T13:15:47.639Z,101914.61
2019-04-10T13:18:16.326Z,101900.05
2019-04-10T13:20:44.546Z,101900.05
2019-04-10T13:23:14.887Z,101918.30
2019-04-10T13:25:43.875Z,101925.07
2019-04-10T13:28:12.825Z,101915.44
2019-04-10T13:30:48.869Z,101913.16
2019-04-10T13:33:12.147Z,101917.02
2019-04-10T13:35:40.409Z,101908.36
2019-04-10T13:38:08.826Z,101913.16
2019-04-10T13:40:37.517Z,101900.09
2019-04-10T13:43:06.008Z,101910.39
2019-04-10T13:45:35.333Z,101912.13
2019-04-10T13:48:04.003Z,101909.68
2019-04-10T13:50:32.761Z,101906.45
2019-04-10T13:53:01.669Z,101902.73
2019-04-10T13:55:30.530Z,101905.18
2019-04-10T13:57:59.937Z,101915.42
2019-04-10T14:00:33.617Z,101906.95
2019-04-10T14:03:03.789Z,101912.20
2019-04-10T14:05:33.896Z,101921.53
2019-04-10T14:08:02.239Z,101921.53
2019-04-10T14:10:31.322Z,101923.74
2019-04-10T14:12:59.730Z,101922.16
2019-04-10T14:15:30.383Z,101920.93
2019-04-10T14:17:59.812Z,101918.51
2019-04-10T14:20:29.003Z,101931.23
2019-04-10T14:23:12.580Z,101923.98
2019-04-10T14:26:00.723Z,101926.19
2019-04-10T14:28:31.278Z,101934.47
2019-04-10T14:31:02.053Z,101930.28
2019-04-10T14:33:30.466Z,101921.94
2019-04-10T14:35:58.631Z,101926.16
2019-04-10T14:38:27.372Z,101931.53
2019-04-10T14:40:56.276Z,101936.90
2019-04-10T14:43:24.997Z,101943.05
2019-04-10T14:45:54.059Z,101941.38
2019-04-10T14:48:22.414Z,101937.84
2019-04-10T14:50:51.507Z,101938.90
2019-04-10T14:53:19.703Z,101939.47
2019-04-10T14:55:47.893Z,101945.19
2019-04-10T14:58:22.703Z,101947.98
2019-04-10T15:00:50.575Z,101941.84
2019-04-10T15:03:18.769Z,101945.83
2019-04-10T15:05:51.449Z,101949.56
2019-04-10T15:08:18.230Z,101952.30
2019-04-10T15:10:46.416Z,101954.72
2019-04-10T15:13:20.791Z,101955.34
2019-04-10T15:15:46.162Z,101952.02
2019-04-10T15:18:14.996Z,101961.23
2019-04-10T15:20:43.233Z,101953.10
2019-04-10T15:23:13.148Z,101957.21
2019-04-10T15:25:41.642Z,101965.30
2019-04-10T15:28:10.495Z,101960.03
2019-04-10T15:30:39.040Z,101961.61
2019-04-10T15:33:07.232Z,101954.69
2019-04-10T15:35:35.437Z,101960.16
2019-04-10T15:38:04.037Z,101963.97
2019-04-10T15:40:32.341Z,101965.95
2019-04-10T15:43:00.806Z,101968.32
2019-04-10T15:45:30.105Z,101971.95
2019-04-10T15:47:59.980Z,101976.18
2019-04-10T15:50:28.444Z,101968.31
2019-04-10T15:52:57.963Z,101973.94
2019-04-10T15:55:27.853Z,101979.37
2019-04-10T15:57:59.789Z,101982.44
2019-04-10T16:00:27.478Z,101978.78
2019-04-10T16:02:57.251Z,101984.89
2019-04-10T16:05:25.981Z,101985.59
2019-04-10T16:07:55.323Z,101983.05
2019-04-10T16:10:28.868Z,101981.51
2019-04-10T16:13:01.884Z,101981.20
2019-04-10T16:15:31.724Z,101985.25
2019-04-10T16:18:01.737Z,101981.39
2019-04-10T16:20:34.057Z,101980.01
2019-04-10T16:23:19.646Z,101981.25
2019-04-10T16:25:52.495Z,101981.89
2019-04-10T16:28:20.814Z,101987.16
2019-04-10T16:30:50.707Z,101977.55
2019-04-10T16:33:19.024Z,101981.64
2019-04-10T16:35:48.302Z,101984.31
2019-04-10T16:38:16.533Z,101982.94
2019-04-10T16:40:45.891Z,101979.14
2019-04-10T16:43:14.271Z,101983.45
2019-04-10T16:45:42.936Z,101979.03
2019-04-10T16:48:11.134Z,101983.67
2019-04-10T16:50:39.394Z,101985.30
2019-04-10T16:53:07.629Z,101989.10
2019-04-10T16:55:36.640Z,101986.91
2019-04-10T16:58:04.907Z,101990.52
2019-04-10T17:00:33.261Z,101995.25
2019-04-10T17:03:01.918Z,101996.89
2019-04-10T17:05:32.047Z,101987.53
2019-04-10T17:08:00.430Z,101991.39
2019-04-10T17:10:29.456Z,102001.67
2019-04-10T17:12:58.244Z,102004.92
2019-04-10T17:15:26.714Z,102007.39
2019-04-10T17:17:54.990Z,102005.33
2019-04-10T17:20:24.451Z,102001.23
2019-04-10T17:22:52.754Z,102004.84
2019-04-10T17:25:21.957Z,102005.70
2019-04-10T17:27:50.348Z,102008.31
2019-04-10T17:30:19.709Z,102009.93
2019-04-10T17:32:48.652Z,102013.28
2019-04-10T17:35:17.267Z,102012.97
2019-04-10T17:37:45.719Z,102009.99
2019-04-10T17:40:27.405Z,102000.78
2019-04-10T17:42:46.447Z,102018.31
2019-04-10T17:45:14.639Z,102018.31
2019-04-10T17:47:42.957Z,102018.88
2019-04-10T17:50:14.009Z,102015.77
2019-04-10T17:52:42.957Z,102022.08
2019-04-10T17:55:13.461Z,102032.10
2019-04-10T17:57:44.510Z,102032.10
2019-04-10T18:00:23.872Z,102029.59
2019-04-10T18:02:52.109Z,102032.74
2019-04-10T18:05:20.484Z,102035.27
2019-04-10T18:07:48.684Z,102043.64
2019-04-10T18:10:16.886Z,102043.95
2019-04-10T18:12:46.067Z,102043.37
2019-04-10T18:15:15.625Z,102050.11
2019-04-10T18:17:44.048Z,102051.64
2019-04-10T18:20:12.524Z,102057.56
2019-04-10T18:22:41.052Z,102062.52
2019-04-10T18:25:09.733Z,102065.27
2019-04-10T18:27:38.654Z,102077.16
2019-04-10T18:30:07.883Z,102077.16
2019-04-10T18:32:36.030Z,102077.71
2019-04-10T18:35:06.790Z,102078.12
2019-04-10T18:37:35.466Z,102083.38
2019-04-10T18:40:05.290Z,102082.19
2019-04-10T18:42:33.458Z,102084.73
2019-04-10T18:45:01.998Z,102074.64
2019-04-10T18:47:32.399Z,102091.83
2019-04-10T18:50:01.160Z,102087.63
2019-04-10T18:52:30.341Z,102092.11
2019-04-10T18:54:58.573Z,102093.25
2019-04-10T18:57:26.763Z,102093.25
2019-04-10T18:59:56.732Z,102099.49
2019-04-10T19:02:29.611Z,102097.75
2019-04-10T19:05:13.982Z,102104.14
2019-04-10T19:07:42.808Z,102101.61
2019-04-10T19:10:11.517Z,102110.36
2019-04-10T19:12:41.167Z,102117.55
2019-04-10T19:15:09.355Z,102114.23
2019-04-10T19:17:37.557Z,102118.03
2019-04-10T19:20:07.707Z,102119.88
2019-04-10T19:22:36.954Z,102125.50
2019-04-10T19:25:06.070Z,102128.70
2019-04-10T19:27:34.334Z,102126.27
2019-04-10T19:30:07.424Z,102121.03
2019-04-10T19:32:37.509Z,102124.91
2019-04-10T19:35:06.788Z,102138.34
2019-04-10T19:37:36.769Z,102132.78
2019-04-10T19:40:07.211Z,102128.42
2019-04-10T19:42:35.674Z,102134.63
2019-04-10T19:45:05.720Z,102141.55
2019-04-10T19:47:34.715Z,102139.98
2019-04-10T19:50:03.490Z,102139.98
2019-04-10T19:52:32.784Z,102142.70
2019-04-10T19:55:01.038Z,102142.70
2019-04-10T19:57:29.249Z,102140.25
2019-04-10T19:59:57.869Z,102150.86
2019-04-10T20:02:26.718Z,102137.85
2019-04-10T20:04:54.888Z,102145.14
2019-04-10T20:07:23.353Z,102144.55
2019-04-10T20:09:52.706Z,102141.63
2019-04-10T20:12:20.927Z,102147.06
2019-04-10T20:14:49.528Z,102147.06
2019-04-10T20:17:17.753Z,102151.03
2019-04-10T20:19:46.742Z,102151.14
2019-04-10T20:22:14.969Z,102162.41
2019-04-10T20:24:43.420Z,102163.92
2019-04-10T20:27:11.976Z,102162.79
2019-04-10T20:29:41.316Z,102157.12
2019-04-10T20:32:11.000Z,102166.84
2019-04-10T20:34:40.686Z,102166.84
2019-04-10T20:37:10.308Z,102174.80
2019-04-10T20:39:39.264Z,102177.12
2019-04-10T20:42:07.795Z,102180.50
2019-04-10T20:44:36.591Z,102188.53
2019-04-10T20:47:04.814Z,102192.08
2019-04-10T20:49:34.269Z,102191.11
2019-04-10T20:52:02.607Z,102185.53
2019-04-10T20:54:31.321Z,102193.28
2019-04-10T20:56:59.591Z,102193.28
2019-04-10T20:59:28.612Z,102198.72
2019-04-10T21:01:57.834Z,102195.28
2019-04-10T21:04:26.091Z,102198.19
2019-04-10T21:06:54.515Z,102202.93
2019-04-10T21:09:24.146Z,102202.93
2019-04-10T21:12:03.021Z,102211.30
2019-04-10T21:14:23.302Z,102208.05
2019-04-10T21:16:51.919Z,102203.72
2019-04-10T21:19:21.704Z,102203.72
2019-04-10T21:21:51.064Z,102211.73
2019-04-10T21:24:19.545Z,102211.73
2019-04-10T21:26:48.524Z,102212.49
2019-04-10T21:29:18.663Z,102211.52
2019-04-10T21:31:52.324Z,102216.11
2019-04-10T21:34:26.212Z,102210.78
2019-04-10T21:36:54.494Z,102210.78
2019-04-10T21:39:22.702Z,102223.14
2019-04-10T21:41:50.890Z,102216.11
2019-04-10T21:44:20.369Z,102224.25
2019-04-10T21:46:48.682Z,102218.53
2019-04-10T21:49:17.159Z,102218.80
2019-04-10T21:51:45.611Z,102226.06
2019-04-10T21:54:14.092Z,102222.23
2019-04-10T21:56:43.126Z,102225.64
2019-04-10T21:59:11.362Z,102226.37
2019-04-10T22:01:40.264Z,102231.04
2019-04-10T22:04:08.427Z,102231.04
2019-04-10T22:06:39.753Z,102231.44
2019-04-10T22:09:12.902Z,102232.00
2019-04-10T22:11:46.175Z,102228.90
2019-04-10T22:14:15.098Z,102230.92
2019-04-10T22:16:44.343Z,102229.93
2019-04-10T22:19:12.979Z,102229.93
2019-04-10T22:21:41.957Z,102235.36
2019-04-10T22:24:10.166Z,102231.83
2019-04-10T22:26:38.359Z,102228.33
2019-04-10T22:29:07.636Z,102234.81
2019-04-10T22:31:37.342Z,102226.52
2019-04-10T22:34:05.579Z,102232.37
2019-04-10T22:36:33.762Z,102234.51
2019-04-10T22:39:02.650Z,102238.40
2019-04-10T22:41:33.521Z,102234.81
2019-04-10T22:44:01.196Z,102238.49
2019-04-10T22:46:29.928Z,102237.80
2019-04-10T22:48:58.129Z,102240.56
2019-04-10T22:51:27.043Z,102247.92
2019-04-10T22:53:55.631Z,102241.80
2019-04-10T22:56:25.436Z,102245.12
2019-04-10T22:58:53.633Z,102241.05
2019-04-10T23:01:22.817Z,102245.94
2019-04-10T23:03:51.021Z,102247.69
2019-04-10T23:06:19.247Z,102248.50
2019-04-10T23:08:47.567Z,102248.68
2019-04-10T23:11:15.715Z,102246.89
2019-04-10T23:13:43.923Z,102250.13
2019-04-10T23:16:14.480Z,102243.55
2019-04-10T23:18:42.058Z,102243.55
2019-04-10T23:21:11.012Z,102244.51
2019-04-10T23:23:39.229Z,102235.48
2019-04-10T23:26:07.431Z,102248.05
2019-04-10T23:28:35.805Z,102250.77
2019-04-10T23:31:05.597Z,102242.14
2019-04-10T23:33:34.535Z,102243.41
2019-04-10T23:36:02.791Z,102244.17
2019-04-10T23:38:31.246Z,102244.17
2019-04-10T23:40:59.489Z,102237.77
2019-04-10T23:43:27.690Z,102237.77
2019-04-10T23:45:55.893Z,102249.60
2019-04-10T23:48:24.610Z,102246.70
2019-04-10T23:50:52.885Z,102243.41
2019-04-10T23:53:22.725Z,102243.59
2019-04-10T23:55:50.922Z,102246.70
2019-04-10T23:58:19.928Z,102252.91
